Time;durP1;ratioP1;P1;durP2;ratioP2;P2;SDS_P1;SDS_P2;PMS_P1;PMS_P2;Temp;Humidity;BMP_temperature;BMP_pressure;BME280_temperature;BME280_humidity;BME280_pressure;Samples;Min_cycle;Max_cycle;Signal;HPM_P1;HPM_P2
2022/06/08 00:01:34;;;;;;;4.30;2.03;;;;;;;20.18;84.07;99631.06;5590438;31;33905;-71
2022/06/08 00:04:37;;;;;;;2.28;1.90;;;;;;;20.16;84.61;99630.50;5590456;31;34501;-70
2022/06/08 00:07:40;;;;;;;4.70;2.10;;;;;;;20.21;84.63;99633.25;5590489;31;34191;-70
2022/06/08 00:10:43;;;;;;;3.95;2.15;;;;;;;20.19;84.42;99618.41;5590508;31;33836;-71
2022/06/08 00:13:45;;;;;;;2.10;1.90;;;;;;;20.13;84.98;99616.72;5589684;31;33685;-71
2022/06/08 00:16:49;;;;;;;2.78;2.15;;;;;;;20.01;85.89;99621.38;5589556;31;32451;-70
2022/06/08 00:19:51;;;;;;;3.97;2.00;;;;;;;20.10;85.40;99619.91;5590654;31;33951;-67
2022/06/08 00:23:10;;;;;;;5.95;2.10;;;;;;;19.98;85.92;99620.00;5590368;31;33939;-71
2022/06/08 00:26:13;;;;;;;4.32;2.25;;;;;;;19.94;86.12;99627.75;5590218;31;34618;-70
2022/06/08 00:29:16;;;;;;;2.75;2.20;;;;;;;19.97;86.11;99626.47;5590173;31;34122;-70
2022/06/08 00:32:19;;;;;;;3.53;2.20;;;;;;;19.98;85.93;99629.97;5590553;31;33878;-69
2022/06/08 00:35:22;;;;;;;4.03;2.10;;;;;;;19.94;85.93;99621.56;5590197;31;34590;-72
2022/06/08 00:38:24;;;;;;;2.22;2.00;;;;;;;19.86;85.93;99624.66;5590249;31;34564;-71
2022/06/08 00:41:46;;;;;;;2.72;1.90;;;;;;;19.95;85.76;99626.69;5590199;31;33964;-67
2022/06/08 00:44:55;;;;;;;2.72;1.85;;;;;;;19.85;85.71;99623.03;5590283;31;33881;-70
2022/06/08 00:48:03;;;;;;;2.53;1.87;;;;;;;19.87;85.18;99624.44;5590163;31;34456;-71
2022/06/08 00:51:05;;;;;;;3.00;2.10;;;;;;;19.88;85.28;99618.00;5590472;31;33917;-70
2022/06/08 00:54:14;;;;;;;3.15;2.17;;;;;;;19.75;85.67;99617.53;5590106;31;33924;-72
2022/06/08 00:57:21;;;;;;;2.85;2.17;;;;;;;19.78;85.62;99630.47;5590175;31;33786;-68
2022/06/08 01:00:31;;;;;;;7.25;2.10;;;;;;;19.82;85.15;99632.44;5589989;31;34250;-69
2022/06/08 01:03:34;;;;;;;4.43;2.25;;;;;;;19.76;85.79;99657.63;5589965;31;33855;-70
2022/06/08 01:06:39;;;;;;;2.83;2.05;;;;;;;19.55;87.46;99712.19;5589985;31;33885;-72
2022/06/08 01:09:42;;;;;;;4.62;2.33;;;;;;;19.61;91.46;99705.81;5590013;31;33905;-72
2022/06/08 01:12:45;;;;;;;4.25;2.33;;;;;;;19.47;96.39;99672.19;5590195;31;33955;-71
2022/06/08 01:15:49;;;;;;;2.85;2.20;;;;;;;19.40;95.52;99695.72;5590245;31;34616;-72
2022/06/08 01:18:53;;;;;;;5.18;2.40;;;;;;;19.47;95.46;99678.41;5590008;31;35174;-71
2022/06/08 01:21:59;;;;;;;3.05;2.17;;;;;;;19.48;96.88;99674.66;5590206;31;33884;-72
2022/06/08 01:25:05;;;;;;;3.45;2.40;;;;;;;19.14;100.00;99667.56;5589854;31;33797;-72
2022/06/08 01:28:30;;;;;;;3.97;2.67;;;;;;;18.74;100.00;99678.31;5589643;31;34641;-72
2022/06/08 01:31:48;;;;;;;3.45;2.50;;;;;;;18.54;100.00;99685.97;5589782;31;34524;-72
2022/06/08 01:35:09;;;;;;;7.57;2.83;;;;;;;18.56;100.00;99691.91;5589765;31;33892;-71
2022/06/08 01:38:30;;;;;;;6.85;3.60;;;;;;;18.21;100.00;99698.09;5589820;31;33873;-70
2022/06/08 01:42:17;;;;;;;7.35;3.40;;;;;;;18.16;100.00;99694.47;5589665;31;34663;-70
2022/06/08 01:45:36;;;;;;;7.78;3.67;;;;;;;18.13;100.00;99687.72;5509961;32;33870;-70
2022/06/08 01:48:44;;;;;;;5.62;2.78;;;;;;;18.13;100.00;99650.13;5510033;32;33834;-70
2022/06/08 01:52:26;;;;;;;9.70;3.00;;;;;;;18.06;100.00;99638.69;5509848;32;33906;-68
2022/06/08 01:55:39;;;;;;;7.72;2.87;;;;;;;17.95;100.00;99649.44;5508744;32;33792;-68
2022/06/08 01:58:52;;;;;;;4.40;3.17;;;;;;;17.59;100.00;99662.00;5509612;32;34597;-69
2022/06/08 02:02:10;;;;;;;4.62;2.92;;;;;;;17.42;100.00;99668.22;5497446;32;34444;-68
2022/06/08 02:05:21;;;;;;;4.00;2.87;;;;;;;17.55;100.00;99651.94;5510084;32;33994;-69
2022/06/08 02:08:34;;;;;;;3.90;2.80;;;;;;;17.41;100.00;99637.91;5509836;32;33745;-68
2022/06/08 02:11:53;;;;;;;4.65;2.72;;;;;;;17.24;100.00;99664.56;5509689;32;34620;-68
2022/06/08 02:15:08;;;;;;;3.33;2.60;;;;;;;17.10;100.00;99671.16;5509687;32;33826;-67
2022/06/08 02:18:40;;;;;;;2.90;2.50;;;;;;;17.13;100.00;99673.37;5526317;31;34404;-68
2022/06/08 02:21:51;;;;;;;3.08;2.78;;;;;;;17.10;100.00;99676.50;5588538;31;32541;-68
2022/06/08 02:25:09;;;;;;;5.65;3.00;;;;;;;17.34;100.00;99680.09;5588368;31;33856;-67
2022/06/08 02:28:22;;;;;;;3.95;3.55;;;;;;;17.31;100.00;99685.91;5589359;31;34577;-67
2022/06/08 02:31:32;;;;;;;4.78;3.00;;;;;;;17.29;100.00;99691.50;5589020;31;34256;-69
2022/06/08 02:34:39;;;;;;;2.72;2.53;;;;;;;17.21;100.00;99689.16;5588837;31;33931;-69
2022/06/08 02:41:24;;;;;;;7.20;3.30;;;;;;;17.04;100.00;99690.81;5546924;32;20104;-75
2022/06/08 02:44:30;;;;;;;4.62;3.20;;;;;;;16.94;100.00;99679.84;5547541;32;34044;-73
2022/06/08 02:47:36;;;;;;;8.10;3.67;;;;;;;16.77;100.00;99670.75;5547182;32;34033;-77
2022/06/08 02:50:55;;;;;;;6.05;3.35;;;;;;;16.79;100.00;99668.69;5547290;32;33972;-77
2022/06/08 02:54:05;;;;;;;4.15;3.75;;;;;;;16.73;100.00;99670.41;5546983;32;33872;-75
2022/06/08 02:57:44;;;;;;;3.67;3.30;;;;;;;16.68;100.00;99672.13;5546554;32;33770;-78
2022/06/08 03:00:54;;;;;;;6.57;3.90;;;;;;;16.59;100.00;99684.16;5543304;32;34318;-78
2022/06/08 03:04:01;;;;;;;;;;;;;;;16.70;100.00;99678.88;5546271;32;33569;-78
2022/06/08 03:07:10;;;;;;;5.20;3.83;;;;;;;16.70;100.00;99672.72;5546770;32;34185;-75
2022/06/08 03:10:15;;;;;;;6.20;4.25;;;;;;;16.63;100.00;99680.00;5547211;32;34503;-75
2022/06/08 03:13:30;;;;;;;7.75;4.70;;;;;;;16.64;100.00;99676.28;5549596;32;33878;-77
2022/06/08 03:16:41;;;;;;;6.43;4.32;;;;;;;16.61;100.00;99666.81;5549785;32;33985;-78
2022/06/08 03:19:44;;;;;;;4.82;3.80;;;;;;;16.46;100.00;99663.66;5550312;32;33910;-77
2022/06/08 03:22:47;;;;;;;7.07;4.30;;;;;;;16.36;100.00;99672.22;5549552;32;33970;-76
2022/06/08 03:25:50;;;;;;;5.22;3.67;;;;;;;16.29;100.00;99673.34;5549260;32;33927;-76
2022/06/08 03:28:53;;;;;;;5.47;4.12;;;;;;;16.32;100.00;99681.75;5549179;32;34561;-74
2022/06/08 03:31:56;;;;;;;5.00;3.95;;;;;;;16.33;100.00;99680.69;5549526;32;33573;-75
2022/06/08 03:34:59;;;;;;;4.78;4.05;;;;;;;16.34;100.00;99687.69;5548556;32;34317;-76
2022/06/08 03:38:02;;;;;;;4.78;4.28;;;;;;;16.31;100.00;99706.06;5549026;32;34042;-76
2022/06/08 03:41:06;;;;;;;5.60;4.37;;;;;;;16.30;100.00;99707.94;5548532;32;33919;-74
2022/06/08 03:44:08;;;;;;;4.53;3.90;;;;;;;16.33;100.00;99720.84;5548922;32;34593;-77
2022/06/08 03:47:16;;;;;;;4.10;3.35;;;;;;;16.29;100.00;99721.53;5549020;32;33922;-73
2022/06/08 03:50:23;;;;;;;6.05;4.00;;;;;;;16.35;100.00;99716.12;5549055;32;33828;-74
2022/06/08 03:53:35;;;;;;;5.28;3.95;;;;;;;16.42;100.00;99724.06;5549023;32;33836;-73
2022/06/08 03:56:39;;;;;;;6.35;4.20;;;;;;;16.37;100.00;99724.72;5549210;32;34156;-71
2022/06/08 03:59:46;;;;;;;6.00;3.62;;;;;;;16.41;100.00;99722.44;5548897;32;34120;-72
2022/06/08 04:02:50;;;;;;;4.95;4.00;;;;;;;16.39;100.00;99719.97;5548806;32;35185;-72
2022/06/08 04:05:58;;;;;;;6.18;3.65;;;;;;;16.52;100.00;99706.44;5549201;32;34216;-72
2022/06/08 04:09:01;;;;;;;5.03;3.70;;;;;;;16.58;100.00;99699.41;5548019;32;35236;-72
2022/06/08 04:12:06;;;;;;;5.10;3.65;;;;;;;16.65;100.00;99708.22;5549082;32;34512;-72
2022/06/08 04:15:10;;;;;;;4.85;3.75;;;;;;;16.75;100.00;99711.16;5548658;32;34663;-72
2022/06/08 04:18:16;;;;;;;4.90;4.20;;;;;;;16.89;100.00;99719.87;5548923;32;34443;-71
2022/06/08 04:21:20;;;;;;;5.35;3.62;;;;;;;17.02;100.00;99722.38;5547524;32;35334;-72
2022/06/08 04:24:23;;;;;;;5.15;3.30;;;;;;;16.97;100.00;99724.09;5548702;32;33907;-71
2022/06/08 04:27:27;;;;;;;4.78;3.37;;;;;;;17.11;100.00;99713.00;5543120;32;33712;-71
2022/06/08 04:30:31;;;;;;;4.47;3.45;;;;;;;17.16;100.00;99698.91;5548350;32;33784;-71
2022/06/08 04:33:35;;;;;;;3.87;3.40;;;;;;;17.11;100.00;99709.50;5548836;32;33837;-71
2022/06/08 04:36:45;;;;;;;4.28;3.50;;;;;;;17.05;100.00;99713.06;5547719;32;34162;-71
2022/06/08 04:39:48;;;;;;;7.78;3.55;;;;;;;17.00;100.00;99721.78;5548437;32;33973;-70
2022/06/08 04:42:59;;;;;;;6.43;3.85;;;;;;;17.27;100.00;99723.09;5548519;32;35010;-71
2022/06/08 04:46:02;;;;;;;6.32;3.58;;;;;;;17.27;100.00;99722.28;5547890;32;34196;-71
2022/06/08 04:49:08;;;;;;;3.70;3.28;;;;;;;17.21;100.00;99724.00;5547416;32;32398;-71
2022/06/08 04:52:11;;;;;;;5.40;3.30;;;;;;;17.41;100.00;99715.69;5545736;32;34389;-71
2022/06/08 04:55:16;;;;;;;3.92;3.37;;;;;;;17.31;100.00;99712.72;5548520;32;34208;-71
2022/06/08 04:58:20;;;;;;;5.28;3.47;;;;;;;17.36;100.00;99712.88;5548368;32;34692;-71
2022/06/08 05:01:24;;;;;;;7.75;3.50;;;;;;;17.24;100.00;99704.75;5543376;32;34140;-71
2022/06/08 05:04:27;;;;;;;4.82;3.20;;;;;;;17.37;100.00;99706.47;5546689;32;34304;-71
2022/06/08 05:07:30;;;;;;;4.45;3.40;;;;;;;17.35;100.00;99709.34;5536943;32;34550;-71
2022/06/08 05:10:35;;;;;;;4.93;3.17;;;;;;;17.40;100.00;99708.69;5546267;32;33767;-71
2022/06/08 05:13:38;;;;;;;3.50;3.20;;;;;;;17.43;100.00;99721.63;5531924;32;34424;-69
2022/06/08 05:16:41;;;;;;;3.95;3.33;;;;;;;17.80;100.00;99716.97;5527406;32;34469;-70
2022/06/08 05:19:47;;;;;;;3.80;3.00;;;;;;;17.80;100.00;99723.16;5538299;32;33683;-70
2022/06/08 05:22:50;;;;;;;3.90;3.08;;;;;;;17.89;100.00;99730.88;5545085;32;33902;-71
2022/06/08 05:25:54;;;;;;;3.95;3.15;;;;;;;18.01;100.00;99735.19;5547843;32;34084;-71
2022/06/08 05:28:57;;;;;;;6.12;3.30;;;;;;;17.89;100.00;99733.56;5547998;32;34058;-71
2022/06/08 05:32:06;;;;;;;6.12;3.20;;;;;;;17.86;100.00;99740.22;5546627;32;33675;-70
2022/06/08 05:35:09;;;;;;;5.18;3.20;;;;;;;18.02;100.00;99726.09;5533497;32;34611;-71
2022/06/08 05:38:13;;;;;;;6.75;3.65;;;;;;;18.31;100.00;99728.91;5546861;32;34075;-71
2022/06/08 05:41:16;;;;;;;3.80;3.30;;;;;;;18.21;100.00;99716.88;5531661;32;34598;-71
2022/06/08 05:44:20;;;;;;;3.62;3.08;;;;;;;18.42;100.00;99720.03;5526912;32;33271;-71
2022/06/08 05:47:24;;;;;;;3.97;3.20;;;;;;;18.37;100.00;99722.62;5528484;32;33720;-71
2022/06/08 05:50:29;;;;;;;5.50;3.05;;;;;;;18.38;100.00;99727.75;5529926;32;33806;-70
2022/06/08 05:53:33;;;;;;;8.60;3.80;;;;;;;19.01;100.00;99729.69;5534620;32;34661;-71
2022/06/08 05:56:37;;;;;;;5.68;3.80;;;;;;;19.24;100.00;99721.53;5527746;32;34385;-70
2022/06/08 05:59:40;;;;;;;8.30;3.40;;;;;;;19.60;100.00;99727.59;5527960;32;34064;-68
2022/06/08 06:02:43;;;;;;;4.18;3.42;;;;;;;19.81;100.00;99735.75;5526123;32;34370;-68
2022/06/08 06:05:47;;;;;;;4.28;3.37;;;;;;;20.23;100.00;99752.34;5528190;32;34529;-70
2022/06/08 06:08:50;;;;;;;3.75;3.40;;;;;;;20.40;100.00;99768.53;5539618;32;33873;-70
2022/06/08 06:11:53;;;;;;;5.28;3.20;;;;;;;20.42;100.00;99774.50;5546338;32;34380;-69
2022/06/08 06:14:58;;;;;;;3.30;2.95;;;;;;;20.01;100.00;99775.69;5543271;32;34543;-70
2022/06/08 06:18:01;;;;;;;4.55;3.05;;;;;;;19.66;100.00;99773.16;5547692;32;34510;-69
2022/06/08 06:21:04;;;;;;;5.75;2.65;;;;;;;19.90;100.00;99766.59;5536531;32;32355;-69
2022/06/08 06:24:07;;;;;;;3.53;3.08;;;;;;;20.00;100.00;99762.44;5532467;32;33448;-69
2022/06/08 06:27:16;;;;;;;4.55;2.95;;;;;;;20.40;100.00;99755.06;5527374;32;33945;-69
2022/06/08 06:30:21;;;;;;;5.65;3.00;;;;;;;20.41;100.00;99764.78;5531202;32;33942;-68
2022/06/08 06:33:23;;;;;;;4.72;2.92;;;;;;;20.25;100.00;99750.22;5536053;32;33043;-68
2022/06/08 06:36:27;;;;;;;6.55;3.22;;;;;;;20.21;100.00;99750.94;5531054;32;34601;-69
2022/06/08 06:39:30;;;;;;;5.10;2.70;;;;;;;20.91;100.00;99753.06;5533450;32;34920;-68
2022/06/08 06:42:34;;;;;;;4.95;2.92;;;;;;;21.48;98.06;99751.63;5532547;32;33880;-66
2022/06/08 06:45:40;;;;;;;2.80;2.50;;;;;;;21.83;93.95;99747.63;5535298;32;33309;-69
2022/06/08 06:48:46;;;;;;;4.03;2.90;;;;;;;21.22;97.71;99744.28;5528142;32;34938;-70
2022/06/08 06:51:52;;;;;;;3.12;2.62;;;;;;;21.01;98.55;99745.12;5528714;32;33922;-68
2022/06/08 06:54:56;;;;;;;5.30;2.90;;;;;;;20.94;99.74;99749.87;5529760;32;35175;-70
2022/06/08 06:57:58;;;;;;;7.55;3.12;;;;;;;20.54;100.00;99740.16;5528788;32;34145;-67
2022/06/08 07:01:03;;;;;;;4.22;2.75;;;;;;;20.81;100.00;99740.28;5532070;32;34632;-69
2022/06/08 07:04:06;;;;;;;3.40;2.55;;;;;;;20.54;100.00;99739.34;5530024;32;34984;-69
2022/06/08 07:07:11;;;;;;;4.70;2.80;;;;;;;20.72;100.00;99734.47;5529850;32;33896;-69
2022/06/08 07:10:15;;;;;;;3.47;2.50;;;;;;;21.31;98.69;99720.38;5549216;32;34384;-68
2022/06/08 07:13:18;;;;;;;3.67;2.97;;;;;;;21.38;98.62;99721.00;5548899;32;34355;-68
2022/06/08 07:16:20;;;;;;;3.80;2.87;;;;;;;21.79;95.83;99731.09;5549281;32;33761;-69
2022/06/08 07:19:23;;;;;;;4.20;2.83;;;;;;;21.73;95.14;99723.25;5548835;32;34138;-68
2022/06/08 07:22:27;;;;;;;4.80;3.00;;;;;;;21.74;94.73;99714.88;5547771;32;34089;-67
2022/06/08 07:25:30;;;;;;;4.65;2.80;;;;;;;21.47;95.76;99705.97;5548074;32;34631;-68
2022/06/08 07:28:33;;;;;;;3.97;2.72;;;;;;;21.78;90.21;99707.09;5548922;32;34320;-67
2022/06/08 07:31:36;;;;;;;3.00;2.67;;;;;;;22.23;86.50;99707.44;5540397;32;33826;-67
2022/06/08 07:34:39;;;;;;;4.07;2.67;;;;;;;21.97;86.44;99701.06;5541352;32;33673;-67
2022/06/08 07:37:42;;;;;;;3.30;2.62;;;;;;;22.27;85.46;99707.75;5548468;32;34324;-70
2022/06/08 07:40:45;;;;;;;2.58;2.30;;;;;;;22.73;82.05;99711.56;5547653;32;33975;-70
2022/06/08 07:43:48;;;;;;;2.55;2.25;;;;;;;23.50;78.84;99706.16;5530713;32;34342;-68
2022/06/08 07:46:51;;;;;;;3.20;2.17;;;;;;;23.73;78.55;99715.62;5529948;32;33968;-70
2022/06/08 07:49:54;;;;;;;4.45;2.30;;;;;;;24.04;75.84;99711.03;5529414;32;34048;-71
2022/06/08 07:52:57;;;;;;;3.08;2.50;;;;;;;24.19;75.92;99714.59;5529335;32;33555;-70
2022/06/08 07:56:00;;;;;;;4.00;2.95;;;;;;;23.91;76.59;99708.91;5528522;32;33718;-70
2022/06/08 07:59:09;;;;;;;3.70;2.62;;;;;;;24.10;75.91;99710.78;5528763;32;34026;-69
2022/06/08 08:02:14;;;;;;;4.90;2.30;;;;;;;23.78;78.15;99702.91;5528585;32;33149;-70
2022/06/08 08:05:19;;;;;;;3.17;2.50;;;;;;;24.35;75.44;99699.09;5533987;32;33965;-69
2022/06/08 08:08:22;;;;;;;8.85;2.42;;;;;;;24.07;76.72;99691.53;5547295;32;34419;-69
2022/06/08 08:11:26;;;;;;;4.20;2.53;;;;;;;24.20;75.62;99693.72;5548119;32;35145;-69
2022/06/08 08:14:33;;;;;;;3.50;2.20;;;;;;;24.05;76.42;99691.81;5539995;32;34929;-70
2022/06/08 08:17:37;;;;;;;3.85;2.60;;;;;;;24.23;75.34;99696.69;5531829;32;33794;-70
2022/06/08 08:20:40;;;;;;;4.72;2.33;;;;;;;24.63;74.27;99695.78;5531154;32;34388;-69
2022/06/08 08:23:42;;;;;;;3.03;1.90;;;;;;;24.33;74.94;99689.63;5546252;32;32725;-70
2022/06/08 08:26:48;;;;;;;3.75;2.45;;;;;;;24.67;72.96;99694.13;5548335;32;34307;-70
2022/06/08 08:29:52;;;;;;;6.90;2.47;;;;;;;25.13;72.08;99691.22;5546051;32;35071;-68
2022/06/08 08:32:56;;;;;;;2.97;2.20;;;;;;;25.40;70.41;99693.53;5531505;32;32668;-69
2022/06/08 08:35:59;;;;;;;2.90;2.60;;;;;;;25.86;71.72;99696.75;5515523;32;33358;-69
2022/06/08 08:39:06;;;;;;;3.85;2.45;;;;;;;25.99;68.69;99693.38;5528435;32;32638;-70
2022/06/08 08:42:22;;;;;;;4.30;2.75;;;;;;;25.45;71.10;99697.03;5536292;32;34032;-69
2022/06/08 08:45:28;;;;;;;4.43;2.90;;;;;;;25.09;72.17;99695.59;5536459;32;33842;-69
2022/06/08 08:48:42;;;;;;;2.70;2.40;;;;;;;25.52;69.07;99694.78;5534505;32;33640;-70
2022/06/08 08:52:10;;;;;;;2.45;2.20;;;;;;;26.21;67.24;99691.00;5541348;32;34315;-69
2022/06/08 08:55:41;;;;;;;3.35;2.60;;;;;;;28.33;60.87;99697.34;5547910;32;33602;-70
2022/06/08 08:58:47;;;;;;;4.15;2.60;;;;;;;28.19;60.99;99696.50;5548156;32;33597;-71
2022/06/08 09:01:53;;;;;;;3.47;2.47;;;;;;;27.94;60.70;99686.81;5542632;32;34005;-69
2022/06/08 09:04:56;;;;;;;4.15;2.30;;;;;;;28.40;59.02;99679.47;5538239;32;34924;-70
2022/06/08 09:08:01;;;;;;;2.80;2.15;;;;;;;28.50;58.60;99682.00;5535336;32;34522;-69
2022/06/08 09:11:33;;;;;;;2.80;2.00;;;;;;;29.01;56.05;99680.97;5540829;32;33912;-70
2022/06/08 09:14:51;;;;;;;2.75;2.28;;;;;;;27.19;61.36;99682.25;5533965;32;33885;-68
2022/06/08 09:17:56;;;;;;;4.37;2.97;;;;;;;26.77;63.15;99683.03;5538033;32;35331;-69
2022/06/08 09:21:21;;;;;;;3.78;2.80;;;;;;;26.20;66.45;99677.66;5530628;32;35156;-69
2022/06/08 09:24:35;;;;;;;4.30;2.20;;;;;;;27.01;63.18;99683.06;5532059;32;33416;-68
2022/06/08 09:27:50;;;;;;;6.93;2.25;;;;;;;27.97;59.61;99686.25;5536293;32;33561;-67
2022/06/08 09:30:53;;;;;;;3.92;2.35;;;;;;;29.70;55.17;99687.87;5526983;32;36195;-68
2022/06/08 09:34:37;;;;;;;2.20;2.00;;;;;;;29.24;55.55;99690.06;5528265;32;33628;-68
2022/06/08 09:37:40;;;;;;;7.20;2.35;;;;;;;28.46;58.03;99683.72;5521160;32;33961;-69
2022/06/08 09:41:14;;;;;;;2.83;2.25;;;;;;;28.63;56.85;99683.13;5528120;32;35056;-71
2022/06/08 09:44:29;;;;;;;4.70;2.65;;;;;;;26.60;63.93;99669.09;5528405;32;34908;-68
2022/06/08 09:51:50;;;;;;;3.35;2.40;;;;;;;26.80;63.54;99654.44;5527691;32;33976;-69
2022/06/08 09:55:35;;;;;;;4.43;2.62;;;;;;;27.02;62.81;99649.25;5488582;32;33329;-70
2022/06/08 09:58:49;;;;;;;3.03;2.37;;;;;;;26.51;65.64;99638.22;5475137;32;34498;-70
2022/06/08 10:02:08;;;;;;;3.65;2.42;;;;;;;27.37;62.73;99631.59;5488815;32;32269;-69
2022/06/08 10:05:26;;;;;;;3.12;2.58;;;;;;;29.26;55.85;99627.72;5528665;32;34945;-70
2022/06/08 10:08:38;;;;;;;6.68;2.45;;;;;;;30.60;51.28;99623.69;5527017;32;34131;-70
2022/06/08 10:11:52;;;;;;;3.87;2.28;;;;;;;30.87;50.52;99613.59;5528220;32;34620;-72
2022/06/08 10:15:01;;;;;;;5.25;2.40;;;;;;;31.19;51.00;99610.41;5527963;32;34622;-70
2022/06/08 10:18:24;;;;;;;2.40;2.10;;;;;;;31.06;47.50;99606.72;5527199;32;33952;-70
2022/06/08 10:21:33;;;;;;;2.45;2.03;;;;;;;32.17;47.29;99593.16;5526378;32;35156;-69
2022/06/08 10:24:50;;;;;;;1.90;1.70;;;;;;;33.27;45.08;99608.47;5526416;32;34557;-71
2022/06/08 10:27:58;;;;;;;2.55;1.75;;;;;;;33.99;43.18;99594.16;5522360;32;148035;-69
2022/06/08 10:31:11;;;;;;;4.10;2.05;;;;;;;32.50;38.79;99588.63;5526713;32;33513;-70
2022/06/08 10:34:20;;;;;;;4.40;1.70;;;;;;;32.84;39.56;99595.03;5527361;32;34454;-70
2022/06/08 10:37:38;;;;;;;2.58;1.83;;;;;;;35.23;34.88;99592.59;5527520;32;35154;-69
2022/06/08 10:44:49;;;;;;;4.07;1.50;;;;;;;34.98;30.21;99582.78;5527539;32;33885;-70
2022/06/08 10:47:57;;;;;;;2.87;1.52;;;;;;;35.79;28.17;99574.03;5527789;32;34899;-68
2022/06/08 10:51:09;;;;;;;4.28;1.58;;;;;;;37.59;27.26;99559.97;5526305;32;34453;-69
2022/06/08 10:54:54;;;;;;;1.48;1.27;;;;;;;36.62;29.04;99556.38;5529418;32;33798;-69
2022/06/08 10:58:06;;;;;;;3.00;1.33;;;;;;;38.12;25.91;99550.63;5517586;32;33721;-69
2022/06/08 11:01:29;;;;;;;3.25;1.25;;;;;;;37.49;26.53;99558.56;5539808;32;33679;-71
2022/06/08 11:04:32;;;;;;;1.75;1.30;;;;;;;38.38;24.94;99549.84;5535202;32;33610;-69
2022/06/08 11:08:34;;;;;;;1.58;1.30;;;;;;;38.40;24.90;99553.00;5535559;32;34808;-72
2022/06/08 11:11:41;;;;;;;1.98;1.70;;;;;;;38.53;23.58;99557.22;5533385;32;34021;-69
2022/06/08 11:14:47;;;;;;;3.80;1.30;;;;;;;38.02;24.29;99547.66;5535703;32;33852;-71
2022/06/08 11:18:01;;;;;;;5.20;1.40;;;;;;;39.06;24.44;99541.28;5535251;32;34250;-70
2022/06/08 11:21:13;;;;;;;3.87;1.37;;;;;;;39.78;23.07;99543.66;5531668;32;33892;-71
2022/06/08 11:24:28;;;;;;;1.65;1.20;;;;;;;39.86;22.83;99555.62;5523761;32;33581;-70
2022/06/08 11:27:36;;;;;;;4.32;1.12;;;;;;;38.78;23.93;99535.34;5525458;32;34154;-70
2022/06/08 11:30:39;;;;;;;;;;;;;;;38.60;24.03;99529.56;5534675;32;34335;-71
2022/06/08 11:33:56;;;;;;;1.77;1.30;;;;;;;37.13;26.13;99532.22;5541662;32;34863;-70
2022/06/08 11:37:22;;;;;;;2.47;1.27;;;;;;;37.11;24.96;99515.16;5537359;32;35020;-71
2022/06/08 11:40:32;;;;;;;4.12;1.50;;;;;;;37.22;24.57;99510.66;5538079;32;34322;-71
2022/06/08 11:43:41;;;;;;;4.60;1.40;;;;;;;35.94;26.43;99503.44;5528950;32;33900;-72
2022/06/08 11:47:00;;;;;;;1.60;1.23;;;;;;;35.15;27.49;99502.50;5529364;32;34506;-70
2022/06/08 11:50:20;;;;;;;3.12;1.55;;;;;;;33.81;30.39;99490.94;5528408;32;33967;-69
2022/06/08 11:53:33;;;;;;;4.37;1.65;;;;;;;34.16;28.67;99500.34;5528838;32;34811;-71
2022/06/08 11:56:52;;;;;;;6.62;1.80;;;;;;;35.71;28.65;99501.31;5527523;32;34007;-69
2022/06/08 11:59:57;;;;;;;5.28;2.83;;;;;;;37.19;26.41;99497.53;5526526;32;35038;-69
2022/06/08 12:03:33;;;;;;;11.12;2.03;;;;;;;37.28;24.61;99503.63;5528118;32;33744;-69
2022/06/08 12:06:39;;;;;;;4.40;1.67;;;;;;;38.36;24.36;99504.25;5524365;32;33819;-70
2022/06/08 12:09:41;;;;;;;3.80;1.75;;;;;;;38.68;24.11;99492.44;5528142;32;34494;-70
2022/06/08 12:12:45;;;;;;;3.70;1.58;;;;;;;38.31;24.85;99491.53;5528962;32;34482;-70
2022/06/08 12:15:56;;;;;;;3.42;1.50;;;;;;;38.29;24.50;99488.34;5536902;32;34608;-68
2022/06/08 12:19:13;;;;;;;2.30;1.60;;;;;;;37.34;26.01;99485.56;5548365;32;34024;-68
2022/06/08 12:22:26;;;;;;;4.72;1.70;;;;;;;37.72;25.45;99478.31;5535022;32;33717;-69
2022/06/08 12:25:37;;;;;;;3.60;1.50;;;;;;;37.93;25.22;99477.88;5548585;32;34910;-70
2022/06/08 12:28:40;;;;;;;2.72;1.90;;;;;;;40.56;21.50;99463.62;5548660;32;34031;-71
2022/06/08 12:31:43;;;;;;;2.55;1.83;;;;;;;39.02;23.95;99462.75;5548380;32;35480;-70
2022/06/08 12:35:08;;;;;;;3.58;2.08;;;;;;;37.64;24.74;99458.03;5547575;32;34688;-70
2022/06/08 12:38:26;;;;;;;8.80;2.20;;;;;;;36.94;26.85;99444.47;5531046;32;34367;-69
2022/06/08 12:41:38;;;;;;;;;;;;;;;33.86;29.48;99449.44;5528505;32;32892;-70
2022/06/08 12:44:51;;;;;;;5.68;2.40;;;;;;;33.24;31.65;99434.03;5529503;32;34094;-70
2022/06/08 12:47:54;;;;;;;4.35;2.10;;;;;;;32.52;32.61;99435.31;5536700;32;32499;-72
2022/06/08 12:50:58;;;;;;;2.37;1.98;;;;;;;33.54;31.95;99432.69;5543866;32;33641;-69
2022/06/08 12:54:11;;;;;;;3.22;2.20;;;;;;;35.21;31.30;99421.16;5545543;32;33132;-69
2022/06/08 12:57:19;;;;;;;5.87;2.03;;;;;;;33.91;31.32;99414.25;5532029;32;35591;-68
2022/06/08 13:00:25;;;;;;;3.08;2.30;;;;;;;33.32;34.84;99419.34;5528708;32;33638;-69
2022/06/08 13:03:29;;;;;;;4.82;2.10;;;;;;;32.15;37.44;99415.09;5528893;32;33847;-68
2022/06/08 13:06:34;;;;;;;5.15;2.30;;;;;;;32.91;36.70;99411.25;5532994;32;33392;-71
2022/06/08 13:09:37;;;;;;;3.65;2.40;;;;;;;35.98;30.86;99419.53;5528669;32;33761;-69
2022/06/08 13:12:45;;;;;;;3.97;2.10;;;;;;;38.29;26.52;99419.06;5529022;32;33893;-70
2022/06/08 13:15:49;;;;;;;2.30;2.10;;;;;;;41.11;23.40;99418.91;5527644;32;32593;-71
2022/06/08 13:18:53;;;;;;;3.47;2.10;;;;;;;41.94;24.09;99413.75;5535153;32;32499;-70
2022/06/08 13:21:56;;;;;;;4.50;2.05;;;;;;;41.04;23.82;99421.69;5542407;32;33790;-71
2022/06/08 13:24:59;;;;;;;11.27;3.58;;;;;;;40.60;23.87;99422.72;5536579;32;33786;-72
2022/06/08 13:28:13;;;;;;;4.97;3.15;;;;;;;31.56;52.18;99433.50;5535253;32;33874;-72
2022/06/08 13:31:22;;;;;;;4.87;2.90;;;;;;;26.25;74.12;99435.66;5514783;32;33266;-72
2022/06/08 13:34:26;;;;;;;6.37;2.85;;;;;;;25.46;77.89;99448.78;5527168;32;33347;-72
2022/06/08 13:37:34;;;;;;;2.62;2.28;;;;;;;28.01;69.33;99445.41;5526392;32;34594;-72
2022/06/08 13:40:37;;;;;;;3.78;2.30;;;;;;;30.00;57.12;99440.19;5528169;32;35473;-68
2022/06/08 13:43:40;;;;;;;2.60;2.15;;;;;;;30.79;51.03;99445.37;5523291;32;32241;-70
2022/06/08 13:46:45;;;;;;;4.72;2.37;;;;;;;31.76;49.46;99440.16;5513171;32;33453;-70
2022/06/08 13:49:52;;;;;;;4.47;2.33;;;;;;;29.40;51.13;99442.66;5529118;32;33987;-69
2022/06/08 13:52:56;;;;;;;3.28;2.30;;;;;;;27.25;60.26;99448.78;5535265;32;35315;-71
2022/06/08 13:56:01;;;;;;;5.32;2.80;;;;;;;24.95;67.73;99450.38;5534250;32;34369;-70
2022/06/08 13:59:03;;;;;;;4.65;2.67;;;;;;;24.92;68.73;99459.09;5533562;32;34995;-70
2022/06/08 14:02:16;;;;;;;5.00;2.80;;;;;;;24.82;72.43;99491.69;5529072;32;33892;-70
2022/06/08 14:15:38;;;;;;;4.22;3.35;;;;;;;22.77;81.14;99534.97;5528875;32;33827;-73
2022/06/08 14:18:48;;;;;;;4.00;2.90;;;;;;;22.08;88.25;99537.97;5525116;32;34209;-71
2022/06/08 14:21:52;;;;;;;4.65;3.37;;;;;;;21.62;91.49;99550.38;5524225;32;32374;-71
2022/06/08 14:25:02;;;;;;;7.07;3.87;;;;;;;21.14;91.56;99545.97;5535790;32;32412;-71
2022/06/08 14:28:05;;;;;;;6.47;4.25;;;;;;;21.36;94.81;99550.44;5528899;32;32508;-70
2022/06/08 14:31:16;;;;;;;4.90;4.40;;;;;;;20.88;100.00;99554.84;5530512;32;33847;-73
2022/06/08 14:34:24;;;;;;;6.43;4.22;;;;;;;20.56;100.00;99552.09;5533074;32;32731;-72
2022/06/08 14:37:29;;;;;;;6.45;5.22;;;;;;;20.33;100.00;99547.00;5532794;32;34966;-72
2022/06/08 14:40:35;;;;;;;5.72;4.85;;;;;;;20.03;100.00;99544.69;5531928;32;34595;-73
2022/06/08 14:43:37;;;;;;;7.37;5.07;;;;;;;19.93;100.00;99533.78;5529084;32;33912;-74
2022/06/08 14:46:43;;;;;;;7.97;5.22;;;;;;;20.11;100.00;99532.66;5527107;32;33771;-76
2022/06/08 14:49:47;;;;;;;13.20;5.78;;;;;;;20.04;100.00;99530.19;5531533;32;33841;-76
2022/06/08 14:52:53;;;;;;;6.55;5.07;;;;;;;19.82;100.00;99543.59;5537539;32;34434;-74
2022/06/08 14:59:23;;;;;;;9.85;6.35;;;;;;;19.52;100.00;99525.12;5529251;32;34306;-75
2022/06/08 15:02:37;;;;;;;7.40;5.82;;;;;;;19.59;100.00;99511.53;5536320;32;34431;-76
2022/06/08 15:05:40;;;;;;;6.18;5.03;;;;;;;19.54;100.00;99508.75;5523983;32;31523;-74
2022/06/08 15:08:46;;;;;;;6.75;5.10;;;;;;;19.45;100.00;99503.00;5529736;32;33687;-76
2022/06/08 15:12:00;;;;;;;6.72;5.62;;;;;;;19.18;100.00;99485.84;5529109;32;35063;-76